Time;durP1;ratioP1;P1;durP2;ratioP2;P2;SDS_P1;SDS_P2;PMS_P1;PMS_P2;Temp;Humidity;BMP_temperature;BMP_pressure;BME280_temperature;BME280_humidity;BME280_pressure;Samples;Min_cycle;Max_cycle;Signal;HPM_P1;HPM_P2
2024/01/07 00:01:02;;;;;;;15.02;9.85;;;;;;;-0.83;100.00;101066.81;6190873;23;20028;-87
2024/01/07 00:03:29;;;;;;;13.40;8.85;;;;;;;-0.89;100.00;101061.38;6194116;23;20027;-84
2024/01/07 00:05:57;;;;;;;16.77;10.35;;;;;;;-0.93;100.00;101078.34;6216676;23;20017;-86
2024/01/07 00:08:26;;;;;;;16.10;9.57;;;;;;;-0.94;100.00;101068.00;6191937;23;20024;-86
2024/01/07 00:10:55;;;;;;;15.75;9.38;;;;;;;-0.94;100.00;101073.16;6214289;23;20024;-85
2024/01/07 00:13:21;;;;;;;19.55;9.27;;;;;;;-0.90;100.00;101075.03;6214841;23;20056;-85
2024/01/07 00:15:48;;;;;;;14.48;8.68;;;;;;;-0.95;100.00;101073.94;6213630;23;20025;-87
2024/01/07 00:18:17;;;;;;;16.70;9.73;;;;;;;-0.97;100.00;101081.59;6192733;23;20029;-85
2024/01/07 00:20:44;;;;;;;14.35;9.90;;;;;;;-1.02;100.00;101086.56;6192174;23;20075;-86
2024/01/07 00:23:11;;;;;;;14.25;8.73;;;;;;;-1.11;100.00;101087.81;6193507;23;20043;-85
2024/01/07 00:25:38;;;;;;;15.32;9.23;;;;;;;-0.99;100.00;101078.09;6215011;23;20029;-86
2024/01/07 00:28:08;;;;;;;15.55;9.65;;;;;;;-0.96;100.00;101078.22;6188971;23;20084;-87
2024/01/07 00:30:36;;;;;;;12.93;8.90;;;;;;;-0.94;100.00;101080.84;6218220;23;20025;-85
2024/01/07 00:33:05;;;;;;;14.70;10.32;;;;;;;-0.88;100.00;101087.16;6191810;23;20058;-87
2024/01/07 00:35:35;;;;;;;15.07;8.60;;;;;;;-0.92;100.00;101082.69;6220885;23;20024;-86
2024/01/07 00:38:02;;;;;;;11.85;8.48;;;;;;;-0.98;100.00;101095.25;6194266;23;20021;-86
2024/01/07 00:40:29;;;;;;;13.27;8.77;;;;;;;-0.87;100.00;101093.19;6215572;23;20076;-86
2024/01/07 00:42:59;;;;;;;12.70;8.15;;;;;;;-0.90;100.00;101099.06;6194452;23;20024;-86
2024/01/07 00:45:25;;;;;;;14.30;8.05;;;;;;;-0.95;100.00;101097.09;6193413;23;20017;-86
2024/01/07 00:47:54;;;;;;;15.32;8.43;;;;;;;-1.00;100.00;101100.31;6195399;23;20123;-86
2024/01/07 00:50:26;;;;;;;12.77;8.90;;;;;;;-1.07;100.00;101099.97;6219908;23;20023;-85
2024/01/07 00:52:56;;;;;;;16.80;9.85;;;;;;;-1.00;100.00;101105.47;6223760;23;20012;-84
2024/01/07 00:55:24;;;;;;;12.35;8.80;;;;;;;-1.10;100.00;101105.00;6197876;23;20017;-87
2024/01/07 00:57:52;;;;;;;12.98;9.23;;;;;;;-1.05;100.00;101114.66;6221305;23;20016;-86
2024/01/07 01:00:23;;;;;;;15.60;9.35;;;;;;;-1.02;100.00;101117.38;6193494;23;20013;-87
2024/01/07 01:02:51;;;;;;;15.70;9.88;;;;;;;-1.07;100.00;101124.00;6219932;23;20048;-86
2024/01/07 01:05:19;;;;;;;15.93;10.20;;;;;;;-1.07;100.00;101124.00;6193049;23;20021;-87
2024/01/07 01:07:45;;;;;;;13.23;8.52;;;;;;;-0.96;100.00;101129.63;6195489;23;20024;-87
2024/01/07 01:10:13;;;;;;;13.90;9.07;;;;;;;-0.93;100.00;101137.47;6216423;23;20065;-85
2024/01/07 01:12:40;;;;;;;16.70;9.85;;;;;;;-0.89;100.00;101143.63;6197453;23;20333;-87
2024/01/07 01:15:08;;;;;;;16.73;10.00;;;;;;;-0.92;100.00;101143.50;6218822;23;20433;-85
2024/01/07 01:17:38;;;;;;;17.17;11.07;;;;;;;-1.01;100.00;101139.69;6193694;23;20024;-86
2024/01/07 01:20:09;;;;;;;15.05;9.20;;;;;;;-0.96;100.00;101141.59;6218713;23;20012;-87
2024/01/07 01:22:36;;;;;;;13.25;8.70;;;;;;;-1.06;100.00;101137.72;6220144;23;20078;-86
2024/01/07 01:25:05;;;;;;;11.93;8.63;;;;;;;-1.12;100.00;101145.13;6218858;23;20024;-86
2024/01/07 01:27:39;;;;;;;11.20;8.02;;;;;;;-1.13;100.00;101159.69;6195101;23;20024;-84
2024/01/07 01:30:07;;;;;;;12.27;7.25;;;;;;;-1.25;100.00;101153.94;6196232;23;20119;-87
2024/01/07 01:32:38;;;;;;;12.50;8.10;;;;;;;-1.17;100.00;101150.94;6193073;23;20020;-86
2024/01/07 01:35:09;;;;;;;12.68;8.55;;;;;;;-1.19;100.00;101157.72;6218708;23;20025;-85
2024/01/07 01:37:44;;;;;;;15.85;8.93;;;;;;;-1.27;100.00;101161.59;6171304;23;20021;-84
2024/01/07 01:40:12;;;;;;;12.75;7.55;;;;;;;-1.32;100.00;101173.34;6216762;23;20059;-85
2024/01/07 01:42:39;;;;;;;13.93;7.30;;;;;;;-1.30;100.00;101173.41;6194508;23;20025;-85
2024/01/07 01:45:07;;;;;;;18.50;7.68;;;;;;;-1.34;100.00;101180.97;6216666;23;20100;-86
2024/01/07 01:47:37;;;;;;;12.68;7.32;;;;;;;-1.27;100.00;101183.84;6194303;23;20361;-86
2024/01/07 01:50:08;;;;;;;12.02;7.80;;;;;;;-1.30;100.00;101186.25;6192091;23;20380;-86
2024/01/07 01:52:36;;;;;;;13.52;8.23;;;;;;;-1.35;100.00;101196.31;6218429;23;20028;-85
2024/01/07 01:55:03;;;;;;;13.05;7.78;;;;;;;-1.24;100.00;101192.59;6217728;23;20024;-85
2024/01/07 01:57:35;;;;;;;14.18;8.93;;;;;;;-1.16;100.00;101200.66;6216407;23;20441;-85
2024/01/07 02:00:06;;;;;;;11.40;8.25;;;;;;;-1.20;100.00;101194.47;6218629;23;20013;-85
2024/01/07 02:02:34;;;;;;;14.45;8.05;;;;;;;-1.12;100.00;101200.00;6220220;23;20020;-85
2024/01/07 02:05:05;;;;;;;13.68;7.88;;;;;;;-1.13;100.00;101200.78;6196324;23;20056;-85
2024/01/07 02:07:32;;;;;;;11.65;6.93;;;;;;;-1.35;100.00;101202.31;6221904;23;20027;-85
2024/01/07 02:10:10;;;;;;;9.93;7.20;;;;;;;-1.22;100.00;101205.50;6192261;23;20017;-86
2024/01/07 02:12:36;;;;;;;17.17;9.98;;;;;;;-1.23;100.00;101214.00;6218768;23;20024;-84
2024/01/07 02:15:04;;;;;;;16.48;8.23;;;;;;;-1.31;100.00;101213.63;6191112;23;20043;-84
2024/01/07 02:17:33;;;;;;;14.40;7.75;;;;;;;-1.36;100.00;101217.66;6190550;23;20040;-85
2024/01/07 02:20:03;;;;;;;17.75;9.60;;;;;;;-1.34;100.00;101209.22;6213923;23;20023;-85
2024/01/07 02:22:30;;;;;;;12.13;8.07;;;;;;;-1.25;100.00;101223.31;6217254;23;20104;-83
2024/01/07 02:24:57;;;;;;;12.85;7.35;;;;;;;-1.35;100.00;101222.00;6215841;23;20079;-83
2024/01/07 02:27:23;;;;;;;10.75;7.15;;;;;;;-1.29;100.00;101230.00;6213633;23;20024;-84
2024/01/07 02:29:50;;;;;;;10.73;7.68;;;;;;;-1.31;100.00;101226.47;6214937;23;20044;-84
2024/01/07 02:32:16;;;;;;;15.02;8.98;;;;;;;-1.28;100.00;101238.59;6190891;23;20114;-83
2024/01/07 02:34:46;;;;;;;15.05;8.40;;;;;;;-1.48;100.00;101241.06;6192398;23;20024;-84
2024/01/07 02:37:13;;;;;;;12.60;7.15;;;;;;;-1.52;100.00;101227.19;6194040;23;20058;-86
2024/01/07 02:39:40;;;;;;;7.82;6.32;;;;;;;-1.43;100.00;101234.47;6220725;23;20360;-84
2024/01/07 02:42:07;;;;;;;12.35;6.40;;;;;;;-1.53;100.00;101240.81;6168497;23;20020;-84
2024/01/07 02:44:33;;;;;;;11.70;7.00;;;;;;;-1.57;100.00;101243.16;6191818;23;20078;-85
2024/01/07 02:47:03;;;;;;;15.07;7.55;;;;;;;-1.47;100.00;101239.34;6215747;23;20040;-84
2024/01/07 02:49:30;;;;;;;10.85;7.25;;;;;;;-1.42;100.00;101243.94;6190508;23;20099;-85
2024/01/07 02:51:56;;;;;;;12.80;7.10;;;;;;;-1.55;100.00;101237.31;6193039;23;20028;-83
2024/01/07 02:54:26;;;;;;;13.40;7.20;;;;;;;-1.46;100.00;101249.72;6219985;23;20051;-83
2024/01/07 02:56:53;;;;;;;13.95;7.63;;;;;;;-1.48;100.00;101253.91;6191509;23;20063;-85
2024/01/07 02:59:20;;;;;;;12.18;6.78;;;;;;;-1.49;100.00;101254.69;6192178;23;20112;-83
2024/01/07 03:01:49;;;;;;;11.30;6.93;;;;;;;-1.62;100.00;101267.72;6193989;23;20020;-85
2024/01/07 03:04:17;;;;;;;10.80;6.68;;;;;;;-1.64;100.00;101251.34;6217130;23;20017;-84
2024/01/07 03:06:44;;;;;;;9.70;5.82;;;;;;;-1.56;100.00;101256.06;6216048;23;20075;-84
2024/01/07 03:09:11;;;;;;;9.38;6.28;;;;;;;-1.61;100.00;101259.22;6216220;23;20028;-84
2024/01/07 03:11:42;;;;;;;10.13;5.43;;;;;;;-1.62;100.00;101265.16;6195179;23;20047;-86
2024/01/07 03:14:11;;;;;;;12.38;6.63;;;;;;;-1.62;100.00;101267.72;6194339;23;20308;-85
2024/01/07 03:16:37;;;;;;;7.72;5.45;;;;;;;-1.58;100.00;101267.94;6169754;23;20472;-85
2024/01/07 03:19:07;;;;;;;8.35;5.70;;;;;;;-1.47;100.00;101265.94;6197100;23;20029;-82
2024/01/07 03:21:35;;;;;;;12.55;6.38;;;;;;;-1.42;100.00;101269.63;6191403;23;20020;-85
2024/01/07 03:24:01;;;;;;;11.98;5.40;;;;;;;-1.55;100.00;101270.69;6217331;23;20028;-86
2024/01/07 03:26:37;;;;;;;9.25;6.43;;;;;;;-1.63;100.00;101271.09;6193620;23;20043;-84
2024/01/07 03:29:09;;;;;;;7.65;4.60;;;;;;;-1.68;100.00;101273.44;6168801;23;20024;-85
2024/01/07 03:31:36;;;;;;;8.68;4.85;;;;;;;-1.80;100.00;101286.50;6220368;23;20064;-86
2024/01/07 03:34:06;;;;;;;14.38;6.88;;;;;;;-1.69;100.00;101285.38;6216167;23;20021;-84
2024/01/07 03:36:35;;;;;;;9.32;5.35;;;;;;;-1.74;100.00;101291.97;6193724;23;20025;-84
2024/01/07 03:39:02;;;;;;;7.10;5.35;;;;;;;-1.74;100.00;101288.53;6213270;23;20026;-85
2024/01/07 03:41:28;;;;;;;16.50;5.93;;;;;;;-1.79;100.00;101297.69;6213890;23;20017;-85
2024/01/07 03:43:56;;;;;;;10.23;4.95;;;;;;;-1.80;100.00;101306.16;6214889;23;20536;-85
2024/01/07 03:46:23;;;;;;;10.15;4.95;;;;;;;-1.73;100.00;101305.69;6190290;23;20023;-85
2024/01/07 03:48:50;;;;;;;7.35;5.13;;;;;;;-1.79;100.00;101306.25;6215351;23;20016;-85
2024/01/07 03:51:16;;;;;;;10.30;4.32;;;;;;;-1.81;100.00;101307.88;6190242;23;20017;-83
2024/01/07 03:53:43;;;;;;;6.65;4.05;;;;;;;-1.82;100.00;101313.78;6190124;23;20051;-85
2024/01/07 03:56:10;;;;;;;9.23;4.35;;;;;;;-1.85;100.00;101313.66;6165660;23;20028;-85
2024/01/07 03:58:36;;;;;;;7.15;4.30;;;;;;;-1.93;100.00;101313.25;6189333;23;20072;-85
2024/01/07 04:01:04;;;;;;;4.63;3.83;;;;;;;-1.90;100.00;101325.34;6163107;23;20028;-85
2024/01/07 04:03:30;;;;;;;7.72;3.85;;;;;;;-1.90;100.00;101322.78;6164923;23;20048;-85
2024/01/07 04:05:57;;;;;;;5.88;4.07;;;;;;;-1.97;100.00;101321.56;6165100;23;20053;-85
2024/01/07 04:08:23;;;;;;;4.97;3.28;;;;;;;-1.86;100.00;101325.56;6164807;23;20020;-84
2024/01/07 04:10:50;;;;;;;3.53;3.05;;;;;;;-1.89;100.00;101321.97;6163628;23;20048;-84
2024/01/07 04:13:19;;;;;;;6.28;2.78;;;;;;;-1.81;100.00;101335.19;6163939;23;20075;-86
2024/01/07 04:15:46;;;;;;;5.78;3.58;;;;;;;-1.81;100.00;101336.09;6166693;23;20021;-85
2024/01/07 04:18:12;;;;;;;3.92;2.97;;;;;;;-1.94;100.00;101349.97;6165930;23;20453;-85
2024/01/07 04:20:40;;;;;;;4.53;3.03;;;;;;;-2.04;100.00;101345.16;6166820;23;20059;-86
2024/01/07 04:23:09;;;;;;;3.88;3.22;;;;;;;-1.96;100.00;101353.25;6170527;23;20020;-85
2024/01/07 04:25:36;;;;;;;5.25;2.85;;;;;;;-1.93;100.00;101349.16;6192605;23;20451;-86
2024/01/07 04:28:04;;;;;;;3.53;2.13;;;;;;;-1.91;100.00;101356.94;6189816;23;20024;-85
2024/01/07 04:30:31;;;;;;;5.63;2.50;;;;;;;-2.01;100.00;101359.03;6166627;23;20040;-85
2024/01/07 04:32:57;;;;;;;3.17;2.38;;;;;;;-2.02;100.00;101357.25;6167358;23;20079;-83
2024/01/07 04:35:24;;;;;;;4.32;2.63;;;;;;;-1.89;100.00;101356.22;6191970;23;20070;-84
2024/01/07 04:37:51;;;;;;;5.97;2.95;;;;;;;-1.95;100.00;101360.16;6193878;23;20080;-86
2024/01/07 04:40:21;;;;;;;5.88;2.50;;;;;;;-1.94;100.00;101372.16;6191200;23;20020;-86
2024/01/07 04:42:51;;;;;;;4.93;2.95;;;;;;;-1.89;100.00;101368.16;6167100;23;20460;-85
2024/01/07 04:45:18;;;;;;;4.25;2.50;;;;;;;-1.92;100.00;101368.88;6168358;23;20088;-86
2024/01/07 04:47:47;;;;;;;3.88;2.60;;;;;;;-1.86;100.00;101370.91;6191367;23;20028;-85
2024/01/07 04:50:14;;;;;;;3.22;2.70;;;;;;;-1.93;100.00;101373.94;6164585;23;20016;-85
2024/01/07 04:52:41;;;;;;;4.45;2.60;;;;;;;-1.79;100.00;101390.06;6178637;23;20096;-85
2024/01/07 04:55:11;;;;;;;3.47;2.17;;;;;;;-1.80;100.00;101388.31;6217139;23;20020;-85
2024/01/07 04:57:38;;;;;;;3.38;2.58;;;;;;;-1.82;100.00;101375.41;6216301;23;20087;-86
2024/01/07 05:00:06;;;;;;;3.67;1.95;;;;;;;-1.84;100.00;101384.69;6189789;23;20017;-86
2024/01/07 05:02:32;;;;;;;4.85;2.83;;;;;;;-1.74;100.00;101389.50;6215137;23;20027;-85
2024/01/07 05:04:59;;;;;;;5.88;3.05;;;;;;;-1.73;100.00;101393.84;6191683;23;20021;-85
2024/01/07 05:07:26;;;;;;;4.13;2.40;;;;;;;-1.99;100.00;101392.47;6191979;23;20044;-84
2024/01/07 05:09:52;;;;;;;4.35;2.17;;;;;;;-1.95;100.00;101399.50;6216476;23;20020;-85
2024/01/07 05:12:21;;;;;;;7.53;2.85;;;;;;;-1.86;100.00;101397.44;6217529;23;20016;-84
2024/01/07 05:14:47;;;;;;;4.63;2.47;;;;;;;-1.93;100.00;101404.72;6193712;23;20044;-86
2024/01/07 05:17:14;;;;;;;4.07;2.38;;;;;;;-1.96;100.00;101414.84;6191138;23;20032;-84
2024/01/07 05:19:42;;;;;;;3.25;2.30;;;;;;;-1.93;100.00;101417.56;6191941;23;20052;-86
2024/01/07 05:22:11;;;;;;;5.28;2.47;;;;;;;-1.95;100.00;101421.75;6191782;23;20036;-85
2024/01/07 05:24:38;;;;;;;2.92;2.05;;;;;;;-1.95;100.00;101425.16;6192653;23;20043;-85
2024/01/07 05:27:08;;;;;;;6.20;2.40;;;;;;;-1.98;100.00;101430.16;6191650;23;20021;-85
2024/01/07 05:29:38;;;;;;;5.32;2.83;;;;;;;-1.81;100.00;101435.28;6192138;23;20020;-86
2024/01/07 05:32:05;;;;;;;5.25;2.97;;;;;;;-1.81;100.00;101425.94;6190915;23;20048;-85
2024/01/07 05:34:33;;;;;;;3.88;3.13;;;;;;;-1.87;100.00;101429.03;6192168;23;20055;-85
2024/01/07 05:36:59;;;;;;;7.35;2.15;;;;;;;-1.94;100.00;101439.78;6216418;23;20051;-85
2024/01/07 05:39:26;;;;;;;3.42;2.15;;;;;;;-1.96;100.00;101440.50;6190839;23;20034;-85
2024/01/07 05:41:53;;;;;;;5.10;2.47;;;;;;;-2.03;100.00;101447.84;6190822;23;20016;-85
2024/01/07 05:44:19;;;;;;;4.70;2.40;;;;;;;-2.04;100.00;101447.75;6190422;23;20021;-85
2024/01/07 05:46:46;;;;;;;5.88;2.50;;;;;;;-2.11;100.00;101446.53;6215412;23;20024;-85
2024/01/07 05:49:13;;;;;;;4.40;2.97;;;;;;;-2.08;100.00;101446.72;6215589;23;20096;-84
2024/01/07 05:51:42;;;;;;;4.55;2.33;;;;;;;-2.07;100.00;101463.00;6198170;22;20012;-85
2024/01/07 05:54:09;;;;;;;2.50;2.30;;;;;;;-2.16;100.00;101461.66;6201875;22;20000;-85
2024/01/07 05:56:44;;;;;;;5.75;3.40;;;;;;;-2.10;100.00;101466.28;6225674;22;20013;-85
2024/01/07 05:59:11;;;;;;;4.25;2.42;;;;;;;-2.13;100.00;101463.53;6201011;22;20501;-84
2024/01/07 06:01:44;;;;;;;2.60;2.08;;;;;;;-2.08;100.00;101471.50;6226067;22;20375;-84
2024/01/07 06:04:13;;;;;;;3.90;2.25;;;;;;;-2.13;100.00;101476.34;6200670;23;20016;-86
2024/01/07 06:06:46;;;;;;;3.35;2.50;;;;;;;-2.13;100.00;101475.47;6203260;23;20024;-87
2024/01/07 06:09:13;;;;;;;6.65;2.45;;;;;;;-2.11;100.00;101481.56;6202790;23;20020;-85
2024/01/07 06:11:46;;;;;;;4.65;2.22;;;;;;;-2.18;100.00;101491.50;6206006;23;20024;-84
2024/01/07 06:14:15;;;;;;;4.63;2.67;;;;;;;-2.23;100.00;101487.78;6206093;23;20040;-85
2024/01/07 06:16:48;;;;;;;1.73;1.63;;;;;;;-2.17;100.00;101494.94;6231221;22;20020;-85
2024/01/07 06:19:19;;;;;;;2.88;2.05;;;;;;;-2.20;100.00;101494.78;6230798;22;20043;-86
2024/01/07 06:21:47;;;;;;;3.42;2.42;;;;;;;-2.26;100.00;101504.69;6230677;22;20024;-84
2024/01/07 06:24:22;;;;;;;3.00;2.08;;;;;;;-2.22;100.00;101510.06;6213673;23;20028;-84
2024/01/07 06:26:51;;;;;;;3.78;2.03;;;;;;;-2.33;100.00;101511.16;6216482;23;20024;-86
2024/01/07 06:29:18;;;;;;;2.92;2.17;;;;;;;-2.33;100.00;101521.41;6189723;23;20028;-85
2024/01/07 06:31:46;;;;;;;4.50;2.35;;;;;;;-2.37;100.00;101512.66;6215484;23;20084;-84
2024/01/07 06:34:13;;;;;;;2.85;1.65;;;;;;;-2.36;100.00;101532.38;6192416;23;20048;-84
2024/01/07 06:36:43;;;;;;;2.92;2.55;;;;;;;-2.42;100.00;101532.00;6192194;23;20035;-84
2024/01/07 06:39:09;;;;;;;4.43;2.47;;;;;;;-2.43;100.00;101542.19;6192341;23;20032;-84
2024/01/07 06:41:37;;;;;;;4.88;1.98;;;;;;;-2.42;100.00;101547.41;6202220;22;20008;-86
2024/01/07 06:44:09;;;;;;;2.67;2.25;;;;;;;-2.45;100.00;101560.03;6205614;22;20011;-85
2024/01/07 06:46:37;;;;;;;2.47;1.90;;;;;;;-2.41;100.00;101562.00;6183303;22;20001;-85
2024/01/07 06:49:09;;;;;;;3.53;1.90;;;;;;;-2.38;100.00;101562.16;6207271;22;20019;-84
2024/01/07 06:51:36;;;;;;;1.95;1.55;;;;;;;-2.44;100.00;101553.22;6206129;22;20019;-85
2024/01/07 06:54:09;;;;;;;3.17;2.92;;;;;;;-2.47;100.00;101573.56;6181319;22;20009;-85
2024/01/07 06:56:37;;;;;;;2.85;2.58;;;;;;;-2.42;100.00;101573.03;6204904;22;20052;-85
2024/01/07 06:59:07;;;;;;;2.80;2.42;;;;;;;-2.54;100.00;101570.63;6179719;22;20484;-84
2024/01/07 07:01:43;;;;;;;2.17;1.73;;;;;;;-2.43;100.00;101586.66;6206911;22;20024;-84
2024/01/07 07:04:18;;;;;;;3.25;2.40;;;;;;;-2.45;100.00;101593.38;6205289;23;20028;-85
2024/01/07 07:07:00;;;;;;;3.20;1.92;;;;;;;-2.51;100.00;101593.00;6161917;23;20021;-86
2024/01/07 07:09:27;;;;;;;2.42;2.28;;;;;;;-2.45;100.00;101598.50;6204066;23;20016;-85
2024/01/07 07:12:03;;;;;;;2.92;2.28;;;;;;;-2.56;100.00;101605.53;6158967;23;20175;-86
2024/01/07 07:14:33;;;;;;;4.03;2.40;;;;;;;-2.53;100.00;101610.88;6192962;23;20059;-84
2024/01/07 07:17:00;;;;;;;4.18;2.63;;;;;;;-2.49;100.00;101614.47;6194338;23;20020;-84
2024/01/07 07:19:27;;;;;;;5.20;2.70;;;;;;;-2.45;100.00;101615.56;6195545;23;20096;-84
2024/01/07 07:21:54;;;;;;;3.05;2.38;;;;;;;-2.46;100.00;101611.22;6167687;23;20111;-85
2024/01/07 07:24:24;;;;;;;3.75;3.45;;;;;;;-2.47;100.00;101618.03;6193618;23;20021;-85
2024/01/07 07:26:51;;;;;;;3.40;2.80;;;;;;;-2.51;100.00;101616.09;6167860;23;20020;-84
2024/01/07 07:29:18;;;;;;;2.80;2.60;;;;;;;-2.64;100.00;101621.28;6193440;23;20021;-84
2024/01/07 07:31:44;;;;;;;5.43;2.58;;;;;;;-2.62;100.00;101622.22;6167913;23;20021;-84
2024/01/07 07:34:16;;;;;;;4.90;3.15;;;;;;;-2.69;100.00;101633.81;6167903;23;20017;-84
2024/01/07 07:36:44;;;;;;;6.00;3.25;;;;;;;-2.64;100.00;101640.09;6167487;23;20020;-85
2024/01/07 07:39:11;;;;;;;7.00;3.20;;;;;;;-2.47;100.00;101650.50;6168533;23;20048;-85
2024/01/07 07:41:39;;;;;;;4.72;2.92;;;;;;;-2.42;100.00;101647.41;6166786;23;20024;-83
2024/01/07 07:44:06;;;;;;;4.38;3.28;;;;;;;-2.48;100.00;101658.97;6193393;23;20121;-84
2024/01/07 07:46:38;;;;;;;3.83;2.72;;;;;;;-2.44;100.00;101666.91;6167465;23;20020;-83
2024/01/07 07:49:05;;;;;;;4.18;2.45;;;;;;;-2.45;100.00;101664.25;6194785;23;20140;-86
2024/01/07 07:51:32;;;;;;;5.55;2.72;;;;;;;-2.45;100.00;101672.88;6168092;23;20074;-83
2024/01/07 07:53:58;;;;;;;5.10;2.72;;;;;;;-2.36;100.00;101665.72;6166931;23;20020;-83
2024/01/07 07:56:26;;;;;;;4.30;3.10;;;;;;;-2.31;100.00;101671.09;6168319;23;20107;-86
2024/01/07 07:58:53;;;;;;;6.32;2.67;;;;;;;-2.30;100.00;101674.56;6192084;23;20020;-86
2024/01/07 08:01:20;;;;;;;2.78;2.58;;;;;;;-2.29;100.00;101678.88;6169781;23;20043;-85
2024/01/07 08:03:47;;;;;;;2.58;2.30;;;;;;;-2.32;100.00;101677.06;6146176;23;20326;-84
2024/01/07 08:06:14;;;;;;;2.67;2.15;;;;;;;-2.10;100.00;101684.34;6168491;23;20466;-84
2024/01/07 08:08:43;;;;;;;3.20;2.83;;;;;;;-2.12;100.00;101678.22;6168838;23;20024;-84
2024/01/07 08:11:10;;;;;;;3.13;2.28;;;;;;;-2.17;100.00;101690.75;6169161;23;20104;-85
2024/01/07 08:13:38;;;;;;;4.55;2.30;;;;;;;-2.09;100.00;101693.78;6191661;23;20365;-85
2024/01/07 08:16:06;;;;;;;4.63;2.70;;;;;;;-2.27;100.00;101696.13;6165918;23;20017;-84
2024/01/07 08:18:33;;;;;;;6.53;2.88;;;;;;;-2.16;100.00;101701.94;6192884;23;20461;-84
2024/01/07 08:21:00;;;;;;;2.83;2.33;;;;;;;-1.98;100.00;101703.81;6168105;23;20074;-85
2024/01/07 08:23:27;;;;;;;3.35;2.90;;;;;;;-2.00;100.00;101707.16;6169758;23;20028;-85
2024/01/07 08:25:54;;;;;;;3.47;2.53;;;;;;;-2.02;100.00;101707.88;6170391;23;20020;-85
2024/01/07 08:28:21;;;;;;;6.75;2.55;;;;;;;-1.93;100.00;101712.66;6169434;23;20031;-86
2024/01/07 08:30:53;;;;;;;5.53;3.90;;;;;;;-1.93;100.00;101711.00;6174187;23;20025;-87
2024/01/07 08:33:26;;;;;;;4.38;2.45;;;;;;;-1.82;100.00;101711.63;6178925;23;20091;-86
2024/01/07 08:35:53;;;;;;;4.03;2.55;;;;;;;-1.97;100.00;101720.97;6173255;23;20027;-85
2024/01/07 08:38:20;;;;;;;6.50;2.60;;;;;;;-1.87;100.00;101723.28;6169416;23;20052;-87
2024/01/07 08:40:46;;;;;;;6.30;2.47;;;;;;;-1.81;100.00;101727.88;6169650;23;20060;-86
2024/01/07 08:43:14;;;;;;;3.80;2.30;;;;;;;-1.75;100.00;101734.25;6171393;23;20020;-85
2024/01/07 08:45:41;;;;;;;4.45;2.47;;;;;;;-1.79;100.00;101732.31;6168332;23;20458;-85
2024/01/07 08:48:08;;;;;;;6.30;3.42;;;;;;;-1.86;100.00;101735.34;6168814;23;20032;-87
2024/01/07 08:50:36;;;;;;;4.57;2.55;;;;;;;-1.83;100.00;101733.81;6173762;23;20115;-85
2024/01/07 08:53:05;;;;;;;3.92;2.80;;;;;;;-1.77;100.00;101734.97;6192936;23;20024;-86
2024/01/07 08:55:34;;;;;;;3.25;2.53;;;;;;;-1.77;100.00;101741.00;6218830;23;20088;-86
2024/01/07 08:58:02;;;;;;;5.07;2.60;;;;;;;-1.76;100.00;101741.88;6198120;23;20027;-84
2024/01/07 09:00:31;;;;;;;4.28;3.40;;;;;;;-1.87;100.00;101744.69;6192723;23;20112;-87
2024/01/07 09:02:58;;;;;;;5.32;2.50;;;;;;;-1.94;100.00;101746.81;6192026;23;20570;-87
2024/01/07 09:05:25;;;;;;;2.42;2.22;;;;;;;-1.79;100.00;101749.41;6190818;23;20034;-86
2024/01/07 09:07:51;;;;;;;3.58;2.92;;;;;;;-1.79;100.00;101751.97;6216626;23;20030;-84
2024/01/07 09:10:19;;;;;;;4.47;2.55;;;;;;;-1.86;100.00;101764.44;6192000;23;20024;-85
2024/01/07 09:12:46;;;;;;;2.55;2.25;;;;;;;-1.92;100.00;101766.63;6217983;23;20020;-86
2024/01/07 09:15:12;;;;;;;2.63;2.42;;;;;;;-1.92;100.00;101761.50;6217456;23;20029;-86
2024/01/07 09:17:39;;;;;;;3.25;2.45;;;;;;;-1.93;100.00;101766.56;6217442;23;20112;-85
2024/01/07 09:20:07;;;;;;;4.65;2.40;;;;;;;-1.78;100.00;101764.03;6215272;23;20028;-86
2024/01/07 09:22:35;;;;;;;2.60;1.98;;;;;;;-1.90;100.00;101774.44;6191432;23;20025;-85
2024/01/07 09:25:05;;;;;;;2.00;1.88;;;;;;;-1.86;100.00;101773.84;6192114;23;20024;-85
2024/01/07 09:27:31;;;;;;;2.35;2.15;;;;;;;-1.75;100.00;101771.91;6214823;23;20020;-85
2024/01/07 09:29:59;;;;;;;3.03;2.28;;;;;;;-1.80;100.00;101776.75;6214898;23;20016;-85
2024/01/07 09:32:26;;;;;;;2.83;2.55;;;;;;;-1.88;100.00;101780.53;6191243;23;20013;-85
2024/01/07 09:34:53;;;;;;;2.65;1.75;;;;;;;-1.74;100.00;101784.81;6191962;23;20020;-85
2024/01/07 09:37:22;;;;;;;5.28;3.10;;;;;;;-1.75;100.00;101785.59;6192058;23;20025;-85
2024/01/07 09:39:52;;;;;;;3.78;2.72;;;;;;;-1.73;100.00;101789.16;6192529;23;20020;-86
2024/01/07 09:42:22;;;;;;;3.67;3.17;;;;;;;-1.68;100.00;101790.31;6167282;23;20012;-86
2024/01/07 09:44:55;;;;;;;2.85;2.30;;;;;;;-1.64;100.00;101787.94;6190028;23;20020;-85
2024/01/07 09:47:24;;;;;;;3.60;2.08;;;;;;;-1.73;100.00;101791.72;6166606;23;20015;-85
2024/01/07 09:49:51;;;;;;;5.10;2.55;;;;;;;-1.62;100.00;101783.78;6190966;23;20058;-85
2024/01/07 09:52:21;;;;;;;2.08;1.45;;;;;;;-1.60;100.00;101789.88;6191794;23;20025;-84
2024/01/07 09:55:00;;;;;;;1.95;1.85;;;;;;;-1.41;100.00;101787.63;6193091;23;20024;-86
2024/01/07 09:57:28;;;;;;;3.08;1.98;;;;;;;-1.36;100.00;101796.44;6194246;23;20028;-84
2024/01/07 09:59:58;;;;;;;2.15;1.95;;;;;;;-1.24;100.00;101796.28;6190285;23;20428;-85
2024/01/07 10:02:25;;;;;;;3.55;2.55;;;;;;;-1.27;100.00;101805.50;6215610;23;20056;-86
2024/01/07 10:04:51;;;;;;;3.97;1.98;;;;;;;-1.29;100.00;101804.50;6216958;23;20432;-84
2024/01/07 10:07:17;;;;;;;3.45;2.47;;;;;;;-1.38;100.00;101800.63;6190705;23;20055;-84
2024/01/07 10:09:44;;;;;;;3.10;2.10;;;;;;;-1.29;100.00;101799.38;6189505;23;20021;-85
2024/01/07 10:12:12;;;;;;;2.10;1.90;;;;;;;-1.23;100.00;101799.75;6189421;23;20071;-85
2024/01/07 10:14:40;;;;;;;2.13;1.80;;;;;;;-1.27;100.00;101800.38;6216010;23;20023;-85
2024/01/07 10:17:17;;;;;;;3.97;2.13;;;;;;;-1.37;100.00;101794.69;6215597;23;20505;-86
2024/01/07 10:19:46;;;;;;;3.92;2.03;;;;;;;-1.35;100.00;101799.91;6215200;23;20051;-85
2024/01/07 10:22:13;;;;;;;5.13;2.88;;;;;;;-1.39;100.00;101809.13;6214332;23;20017;-85
2024/01/07 10:24:43;;;;;;;2.97;2.00;;;;;;;-1.36;100.00;101800.72;6187655;23;20021;-85
2024/01/07 10:27:10;;;;;;;3.15;2.47;;;;;;;-1.38;100.00;101808.34;6189017;23;20082;-85
2024/01/07 10:29:39;;;;;;;2.75;2.03;;;;;;;-1.35;100.00;101800.78;6187992;23;20072;-85
2024/01/07 10:32:06;;;;;;;2.78;2.33;;;;;;;-1.24;100.00;101803.09;6186580;23;20044;-84
2024/01/07 10:34:36;;;;;;;2.72;2.03;;;;;;;-1.36;100.00;101799.00;6213293;23;20027;-86
2024/01/07 10:37:05;;;;;;;1.95;1.77;;;;;;;-1.46;100.00;101801.88;6189011;23;20044;-85
2024/01/07 10:39:32;;;;;;;4.38;2.28;;;;;;;-1.48;100.00;101790.59;6188744;23;20026;-84
2024/01/07 10:41:59;;;;;;;3.55;2.10;;;;;;;-1.30;100.00;101795.94;6213637;23;20417;-86
2024/01/07 10:44:35;;;;;;;3.47;2.50;;;;;;;-1.51;100.00;101795.56;6187859;23;20074;-85
2024/01/07 10:47:09;;;;;;;5.00;3.05;;;;;;;-1.25;100.00;101806.47;6189966;23;20024;-85
2024/01/07 10:49:37;;;;;;;8.38;3.42;;;;;;;-1.08;100.00;101792.91;6189002;23;20048;-86
2024/01/07 10:52:07;;;;;;;5.15;3.40;;;;;;;-1.02;100.00;101795.84;6188576;23;20043;-85
2024/01/07 10:54:36;;;;;;;4.55;3.15;;;;;;;-1.06;100.00;101799.00;6189720;23;20350;-85
2024/01/07 10:57:35;;;;;;;3.28;2.97;;;;;;;-1.20;100.00;101805.03;6190205;23;20419;-84
2024/01/07 11:00:06;;;;;;;3.03;2.38;;;;;;;-1.23;100.00;101810.88;6216923;23;20021;-85
2024/01/07 11:02:38;;;;;;;3.22;2.30;;;;;;;-1.30;100.00;101816.50;6193426;23;20013;-85
2024/01/07 11:05:46;;;;;;;3.97;2.00;;;;;;;-1.10;100.00;101812.47;6195363;23;20094;-85
2024/01/07 11:08:41;;;;;;;2.40;1.85;;;;;;;-1.00;100.00;101811.34;6218077;23;20107;-86
2024/01/07 11:11:20;;;;;;;4.28;2.63;;;;;;;-1.00;100.00;101809.63;6216810;23;20077;-84
2024/01/07 11:13:51;;;;;;;5.15;2.90;;;;;;;-1.00;100.00;101806.19;6218737;23;20025;-84
2024/01/07 11:16:43;;;;;;;7.93;3.65;;;;;;;-0.99;100.00;101800.25;6218105;23;20112;-86
2024/01/07 11:19:10;;;;;;;3.95;3.13;;;;;;;-0.96;100.00;101807.25;6217818;23;20618;-84
2024/01/07 11:21:37;;;;;;;3.50;2.90;;;;;;;-1.28;100.00;101809.72;6193976;23;20020;-86